createdAt,value
2023-06-19T00:00:34.664Z,7.60
2023-06-19T00:03:02.619Z,7.80
2023-06-19T00:05:31.910Z,7.97
2023-06-19T00:08:00.078Z,8.32
2023-06-19T00:10:27.991Z,7.53
2023-06-19T00:12:55.861Z,8.35
2023-06-19T00:15:24.069Z,7.93
2023-06-19T00:17:52.023Z,8.63
2023-06-19T00:20:20.058Z,7.78
2023-06-19T00:22:52.813Z,8.07
2023-06-19T00:25:21.120Z,8.05
2023-06-19T00:27:49.029Z,7.78
2023-06-19T00:30:17.011Z,8.02
2023-06-19T00:32:54.208Z,7.20
2023-06-19T00:35:23.413Z,7.80
2023-06-19T00:37:52.766Z,8.35
2023-06-19T00:40:23.849Z,8.40
2023-06-19T00:42:51.938Z,8.00
2023-06-19T00:45:19.900Z,7.70
2023-06-19T00:47:47.762Z,7.93
2023-06-19T00:50:15.971Z,8.05
2023-06-19T00:52:43.872Z,8.30
2023-06-19T00:55:13.171Z,7.90
2023-06-19T00:57:41.300Z,7.50
2023-06-19T01:00:11.923Z,8.35
2023-06-19T01:02:41.076Z,7.35
2023-06-19T01:05:09.360Z,7.68
2023-06-19T01:07:41.546Z,7.70
2023-06-19T01:10:11.067Z,7.47
2023-06-19T01:12:40.676Z,7.68
2023-06-19T01:15:09.084Z,7.82
2023-06-19T01:17:37.028Z,8.15
2023-06-19T01:20:11.721Z,7.82
2023-06-19T01:22:44.801Z,7.22
2023-06-19T01:25:14.839Z,7.25
2023-06-19T01:27:43.168Z,7.63
2023-06-19T01:30:11.530Z,7.28
2023-06-19T01:32:41.566Z,7.32
2023-06-19T01:35:10.233Z,7.30
2023-06-19T01:37:38.206Z,7.20
2023-06-19T01:40:10.341Z,7.10
2023-06-19T01:42:38.801Z,7.57
2023-06-19T01:45:07.341Z,7.05
2023-06-19T01:47:35.837Z,7.43
2023-06-19T01:50:05.212Z,7.10
2023-06-19T01:52:33.063Z,7.20
2023-06-19T01:55:00.995Z,7.53
2023-06-19T01:57:30.294Z,7.38
2023-06-19T01:59:58.183Z,7.07
2023-06-19T02:02:26.186Z,6.65
2023-06-19T02:04:54.107Z,6.85
2023-06-19T02:07:21.949Z,7.35
2023-06-19T02:09:49.870Z,6.40
2023-06-19T02:12:17.769Z,6.07
2023-06-19T02:14:47.108Z,6.95
2023-06-19T02:17:15.058Z,6.13
2023-06-19T02:19:43.695Z,6.57
2023-06-19T02:22:11.541Z,6.97
2023-06-19T02:24:40.428Z,6.80
2023-06-19T02:27:08.658Z,6.57
2023-06-19T02:29:36.538Z,6.22
2023-06-19T02:32:06.448Z,6.80
2023-06-19T02:34:35.869Z,6.72
2023-06-19T02:37:06.993Z,6.50
2023-06-19T02:39:34.893Z,6.80
2023-06-19T02:42:02.773Z,6.63
2023-06-19T02:44:30.658Z,6.05
2023-06-19T02:46:58.523Z,5.78
2023-06-19T02:49:27.833Z,6.45
2023-06-19T02:51:55.737Z,7.13
2023-06-19T02:54:23.654Z,6.88
2023-06-19T02:56:51.566Z,6.60
2023-06-19T02:59:19.678Z,6.43
2023-06-19T03:01:48.710Z,6.25
2023-06-19T03:04:16.565Z,6.10
2023-06-19T03:06:46.352Z,6.00
2023-06-19T03:09:14.286Z,6.63
2023-06-19T03:11:42.194Z,6.05
2023-06-19T03:14:11.028Z,5.82
2023-06-19T03:16:39.409Z,5.82
2023-06-19T03:19:07.437Z,5.55
2023-06-19T03:21:36.470Z,5.80
2023-06-19T03:24:06.249Z,6.00
2023-06-19T03:26:35.365Z,5.38
2023-06-19T03:29:04.416Z,5.55
2023-06-19T03:31:46.066Z,5.30
2023-06-19T03:34:14.091Z,5.15
2023-06-19T03:36:41.954Z,5.63
2023-06-19T03:39:13.290Z,5.32
2023-06-19T03:41:41.182Z,5.25
2023-06-19T03:44:09.853Z,5.70
2023-06-19T03:46:37.908Z,5.15
2023-06-19T03:49:07.322Z,4.57
2023-06-19T03:51:35.168Z,5.28
2023-06-19T03:54:03.540Z,5.32
2023-06-19T03:56:32.829Z,5.38
2023-06-19T03:59:00.686Z,5.00
2023-06-19T04:01:28.680Z,5.05
2023-06-19T04:03:56.721Z,4.63
2023-06-19T04:06:24.902Z,4.43
2023-06-19T04:08:52.784Z,4.57
2023-06-19T04:11:21.524Z,4.47
2023-06-19T04:13:50.766Z,4.60
2023-06-19T04:16:18.848Z,4.10
2023-06-19T04:18:46.832Z,4.50
2023-06-19T04:21:15.708Z,4.10
2023-06-19T04:23:43.706Z,3.92
2023-06-19T04:26:11.570Z,4.18
2023-06-19T04:28:42.877Z,3.78
2023-06-19T04:31:12.102Z,4.38
2023-06-19T04:33:41.466Z,3.65
2023-06-19T04:36:11.084Z,3.88
2023-06-19T04:38:38.996Z,4.10
2023-06-19T04:41:06.937Z,3.63
2023-06-19T04:43:37.667Z,3.83
2023-06-19T04:46:05.825Z,3.97
2023-06-19T04:48:37.509Z,3.83
2023-06-19T04:51:05.404Z,3.58
2023-06-19T04:53:33.290Z,3.38
2023-06-19T04:56:02.809Z,3.83
2023-06-19T04:58:30.892Z,3.58
2023-06-19T05:00:58.854Z,3.42
2023-06-19T05:03:26.797Z,3.67
2023-06-19T05:05:56.039Z,3.50
2023-06-19T05:08:23.957Z,3.50
2023-06-19T05:10:51.814Z,3.50
2023-06-19T05:13:19.786Z,3.08
2023-06-19T05:15:47.768Z,3.67
2023-06-19T05:18:15.788Z,3.53
2023-06-19T05:20:43.756Z,3.05
2023-06-19T05:23:13.386Z,3.20
2023-06-19T05:25:41.290Z,3.28
2023-06-19T05:28:09.127Z,3.33
2023-06-19T05:30:37.010Z,3.10
2023-06-19T05:33:05.231Z,3.53
2023-06-19T05:35:33.142Z,3.13
2023-06-19T05:38:01.151Z,3.00
2023-06-19T05:40:30.719Z,3.42
2023-06-19T05:42:59.097Z,3.38
2023-06-19T05:45:26.924Z,3.03
2023-06-19T05:47:54.837Z,3.60
2023-06-19T05:50:22.896Z,3.03
2023-06-19T05:52:51.023Z,3.00
2023-06-19T05:55:18.980Z,2.80
2023-06-19T05:57:48.250Z,3.00
2023-06-19T06:00:16.666Z,3.08
2023-06-19T06:02:44.715Z,3.28
2023-06-19T06:05:12.938Z,2.55
2023-06-19T06:07:41.669Z,3.03
2023-06-19T06:10:10.280Z,3.05
2023-06-19T06:12:38.216Z,3.20
2023-06-19T06:15:08.115Z,2.85
2023-06-19T06:17:36.024Z,3.28
2023-06-19T06:20:05.392Z,3.10
2023-06-19T06:22:33.308Z,3.20
2023-06-19T06:25:01.268Z,2.97
2023-06-19T06:27:29.115Z,2.90
2023-06-19T06:29:57.002Z,2.90
2023-06-19T06:32:27.170Z,2.97
2023-06-19T06:34:55.058Z,2.95
2023-06-19T06:37:23.781Z,3.10
2023-06-19T06:39:51.664Z,3.28
2023-06-19T06:42:19.629Z,3.15
2023-06-19T06:44:47.494Z,3.30
2023-06-19T06:47:15.792Z,2.88
2023-06-19T06:49:45.017Z,2.80
2023-06-19T06:52:12.878Z,3.10
2023-06-19T06:54:40.843Z,3.30
2023-06-19T06:57:09.241Z,3.38
2023-06-19T06:59:37.131Z,3.53
2023-06-19T07:02:05.324Z,3.35
2023-06-19T07:04:33.369Z,2.80
2023-06-19T07:07:04.829Z,3.55
2023-06-19T07:09:32.662Z,3.40
2023-06-19T07:12:00.602Z,3.60
2023-06-19T07:14:28.763Z,3.30
2023-06-19T07:16:56.644Z,3.70
2023-06-19T07:19:24.542Z,3.70
2023-06-19T07:21:52.510Z,3.78
2023-06-19T07:24:21.802Z,3.67
2023-06-19T07:26:49.680Z,3.60
2023-06-19T07:29:17.643Z,3.70
2023-06-19T07:31:45.558Z,3.47
2023-06-19T07:34:13.450Z,3.50
2023-06-19T07:36:41.349Z,3.50
2023-06-19T07:39:09.306Z,3.50
2023-06-19T07:41:38.584Z,3.67
2023-06-19T07:44:06.523Z,3.80
2023-06-19T07:46:34.609Z,4.10
2023-06-19T07:49:02.649Z,3.63
2023-06-19T07:51:30.510Z,3.72
2023-06-19T07:53:58.496Z,3.78
2023-06-19T07:56:26.390Z,3.63
2023-06-19T07:58:55.656Z,4.13
2023-06-19T08:01:23.536Z,4.15
2023-06-19T08:03:51.497Z,3.53
2023-06-19T08:06:19.613Z,3.67
2023-06-19T08:08:47.782Z,4.20
2023-06-19T08:11:15.948Z,3.83
2023-06-19T08:13:43.931Z,3.90
2023-06-19T08:16:13.157Z,3.75
2023-06-19T08:18:41.085Z,3.90
2023-06-19T08:21:08.988Z,3.80
2023-06-19T08:23:36.882Z,3.95
2023-06-19T08:26:04.762Z,3.90
2023-06-19T08:28:32.961Z,3.85
2023-06-19T08:31:00.922Z,3.47
2023-06-19T08:33:30.096Z,3.78
2023-06-19T08:35:57.924Z,3.53
2023-06-19T08:38:25.826Z,3.92
2023-06-19T08:40:53.721Z,3.70
2023-06-19T08:43:21.563Z,3.45
2023-06-19T08:45:55.505Z,4.20
2023-06-19T08:48:23.467Z,3.55
2023-06-19T08:50:52.761Z,3.50
2023-06-19T08:53:20.620Z,3.60
2023-06-19T08:55:48.657Z,3.92
2023-06-19T08:58:22.187Z,3.58
2023-06-19T09:00:50.672Z,3.70
2023-06-19T09:03:21.637Z,4.38
2023-06-19T09:05:52.203Z,3.88
2023-06-19T09:08:22.848Z,4.20
2023-06-19T09:10:57.986Z,4.18
2023-06-19T09:13:25.940Z,4.10
2023-06-19T09:15:59.748Z,3.70
2023-06-19T09:18:27.668Z,4.15
2023-06-19T09:20:55.971Z,4.05
2023-06-19T09:23:25.286Z,4.30
2023-06-19T09:25:56.015Z,3.78
2023-06-19T09:28:24.324Z,4.05
2023-06-19T09:30:55.893Z,4.13
2023-06-19T09:33:23.950Z,3.88
2023-06-19T09:35:51.878Z,4.22
2023-06-19T09:38:20.296Z,4.40
2023-06-19T09:40:49.550Z,4.30
2023-06-19T09:43:18.008Z,4.43
2023-06-19T09:45:46.209Z,4.25
2023-06-19T09:48:14.189Z,4.47
2023-06-19T09:50:50.082Z,3.92
2023-06-19T09:53:18.206Z,4.30
2023-06-19T09:55:46.704Z,4.45
2023-06-19T09:58:15.990Z,4.60
2023-06-19T10:00:44.996Z,3.90
2023-06-19T10:03:13.765Z,4.65
2023-06-19T10:05:42.300Z,4.43
2023-06-19T10:08:10.310Z,4.40
2023-06-19T10:10:38.204Z,4.47
2023-06-19T10:13:13.546Z,4.05
2023-06-19T10:15:44.149Z,4.50
2023-06-19T10:18:15.139Z,4.43
2023-06-19T10:20:46.672Z,4.28
2023-06-19T10:23:17.395Z,4.15
2023-06-19T10:25:46.982Z,4.68
2023-06-19T10:28:18.318Z,4.47
2023-06-19T10:30:47.874Z,4.20
2023-06-19T10:33:15.757Z,4.40
2023-06-19T10:35:43.629Z,4.20
2023-06-19T10:38:11.897Z,4.30
2023-06-19T10:40:39.842Z,4.57
2023-06-19T10:43:07.730Z,4.85
2023-06-19T10:45:35.670Z,4.22
2023-06-19T10:48:06.608Z,4.38
2023-06-19T10:50:39.361Z,4.63
2023-06-19T10:53:08.076Z,4.10
2023-06-19T10:55:36.566Z,4.53
2023-06-19T10:58:04.637Z,4.53
2023-06-19T11:00:34.843Z,4.50
2023-06-19T11:03:02.780Z,4.80
2023-06-19T11:05:32.185Z,4.50
2023-06-19T11:08:00.366Z,4.30
2023-06-19T11:10:29.442Z,4.50
2023-06-19T11:12:57.482Z,4.50
2023-06-19T11:15:31.783Z,4.03
2023-06-19T11:17:59.909Z,4.38
2023-06-19T11:20:27.896Z,4.80
2023-06-19T11:23:00.510Z,4.85
2023-06-19T11:25:36.513Z,4.45
2023-06-19T11:28:04.516Z,4.95
2023-06-19T11:30:33.116Z,4.40
2023-06-19T11:33:01.484Z,4.07
2023-06-19T11:35:35.224Z,4.75
2023-06-19T11:38:04.738Z,4.68
2023-06-19T11:40:40.487Z,5.10
2023-06-19T11:43:09.915Z,4.78
2023-06-19T11:45:49.733Z,4.80
2023-06-19T11:48:23.333Z,4.70
2023-06-19T11:50:52.309Z,4.55
2023-06-19T11:53:21.655Z,5.18
2023-06-19T11:55:49.592Z,4.70
2023-06-19T11:58:17.562Z,4.90
2023-06-19T12:00:45.439Z,4.95
2023-06-19T12:03:13.440Z,5.00
2023-06-19T12:05:41.619Z,4.68
2023-06-19T12:08:09.479Z,4.80
2023-06-19T12:10:38.677Z,5.25
2023-06-19T12:13:06.569Z,4.80
2023-06-19T12:15:36.796Z,4.68
2023-06-19T12:18:08.085Z,5.15
2023-06-19T12:20:36.131Z,5.10
2023-06-19T12:23:04.529Z,5.35
2023-06-19T12:25:32.439Z,5.72
2023-06-19T12:28:01.735Z,5.13
2023-06-19T12:30:29.632Z,5.28
2023-06-19T12:32:58.009Z,5.80
2023-06-19T12:35:26.926Z,5.25
2023-06-19T12:37:56.148Z,5.18
2023-06-19T12:40:24.457Z,5.65
2023-06-19T12:42:52.685Z,5.15
2023-06-19T12:45:22.036Z,5.47
2023-06-19T12:47:49.955Z,5.53
2023-06-19T12:50:17.874Z,5.55
2023-06-19T12:52:45.772Z,6.55
2023-06-19T12:55:13.687Z,5.65
2023-06-19T12:57:42.017Z,6.03
2023-06-19T13:00:12.966Z,5.72
2023-06-19T13:02:44.223Z,5.72
2023-06-19T13:05:12.245Z,6.03
2023-06-19T13:07:40.086Z,5.63
2023-06-19T13:10:08.324Z,6.20
2023-06-19T13:12:36.390Z,5.82
2023-06-19T13:15:04.480Z,5.85
2023-06-19T13:17:32.463Z,5.63
2023-06-19T13:20:01.766Z,5.82
2023-06-19T13:22:29.617Z,5.55
2023-06-19T13:24:57.500Z,5.32
2023-06-19T13:27:25.517Z,5.55
2023-06-19T13:29:53.424Z,5.53
2023-06-19T13:32:21.310Z,5.72
2023-06-19T13:34:49.276Z,6.03
2023-06-19T13:37:18.535Z,5.70
2023-06-19T13:39:46.378Z,5.93
2023-06-19T13:42:14.244Z,5.57
2023-06-19T13:44:42.140Z,5.88
2023-06-19T13:47:10.143Z,5.90
2023-06-19T13:49:38.191Z,5.32
2023-06-19T13:52:06.580Z,5.28
2023-06-19T13:54:36.215Z,5.60
2023-06-19T13:57:04.885Z,5.75
2023-06-19T13:59:32.927Z,6.38
2023-06-19T14:02:01.005Z,5.10
2023-06-19T14:04:28.934Z,5.90
2023-06-19T14:06:56.894Z,5.65
2023-06-19T14:09:24.741Z,5.25
2023-06-19T14:11:53.943Z,5.35
2023-06-19T14:14:21.875Z,5.90
2023-06-19T14:16:50.144Z,5.90
2023-06-19T14:19:18.113Z,5.60
2023-06-19T14:21:46.070Z,5.05
2023-06-19T14:24:14.021Z,5.47
2023-06-19T14:26:41.914Z,5.13
2023-06-19T14:29:11.198Z,5.43
2023-06-19T14:31:39.223Z,4.78
2023-06-19T14:34:07.153Z,5.30
2023-06-19T14:36:35.063Z,5.35
2023-06-19T14:39:02.980Z,4.25
2023-06-19T14:41:30.987Z,5.18
2023-06-19T14:43:59.006Z,4.95
2023-06-19T14:46:38.961Z,4.60
2023-06-19T14:49:08.111Z,4.97
2023-06-19T14:51:36.034Z,4.13
2023-06-19T14:54:04.314Z,5.35
2023-06-19T14:56:32.169Z,5.05
2023-06-19T14:59:00.025Z,5.15
2023-06-19T15:01:29.363Z,4.50
2023-06-19T15:03:57.369Z,5.00
2023-06-19T15:06:25.485Z,4.57
2023-06-19T15:08:53.385Z,4.88
2023-06-19T15:11:21.260Z,4.43
2023-06-19T15:13:49.198Z,4.72
2023-06-19T15:16:17.600Z,4.70
2023-06-19T15:18:46.858Z,4.63
2023-06-19T15:21:14.783Z,4.55
2023-06-19T15:23:42.649Z,4.45
2023-06-19T15:26:10.619Z,4.60
2023-06-19T15:28:38.781Z,4.70
2023-06-19T15:31:06.857Z,4.28
2023-06-19T15:33:34.793Z,4.70
2023-06-19T15:36:04.100Z,4.30
2023-06-19T15:38:32.024Z,4.50
2023-06-19T15:40:59.878Z,4.72
2023-06-19T15:43:29.767Z,4.45
2023-06-19T15:45:57.745Z,4.65
2023-06-19T15:48:25.727Z,4.80
2023-06-19T15:50:53.636Z,4.50
2023-06-19T15:53:22.831Z,4.80
2023-06-19T15:55:50.714Z,4.25
2023-06-19T15:58:18.683Z,4.80
2023-06-19T16:00:49.080Z,4.60
2023-06-19T16:03:17.123Z,4.82
2023-06-19T16:06:01.535Z,4.50
2023-06-19T16:08:36.050Z,4.93
2023-06-19T16:11:05.653Z,4.80
2023-06-19T16:13:33.741Z,4.85
2023-06-19T16:16:01.795Z,5.20
2023-06-19T16:18:29.701Z,4.82
2023-06-19T16:20:57.584Z,4.68
2023-06-19T16:23:25.864Z,5.18
2023-06-19T16:25:55.179Z,5.07
2023-06-19T16:28:23.036Z,4.93
2023-06-19T16:30:50.921Z,5.10
2023-06-19T16:33:18.927Z,4.97
2023-06-19T16:35:46.914Z,5.07
2023-06-19T16:38:14.767Z,4.80
2023-06-19T16:40:42.574Z,5.53
2023-06-19T16:43:12.481Z,5.13
2023-06-19T16:45:40.418Z,5.15
2023-06-19T16:48:08.365Z,4.85
2023-06-19T16:50:36.534Z,4.78
2023-06-19T16:53:07.069Z,7.20
2023-06-19T16:55:35.069Z,8.88
2023-06-19T16:58:02.972Z,12.52
2023-06-19T17:00:32.189Z,14.82
2023-06-19T17:03:00.207Z,16.13
2023-06-19T17:05:28.746Z,19.17
2023-06-19T17:07:56.615Z,19.98
2023-06-19T17:10:25.173Z,20.92
2023-06-19T17:12:53.315Z,22.40
2023-06-19T17:15:21.272Z,22.92
2023-06-19T17:17:50.629Z,23.70
2023-06-19T17:20:21.490Z,23.13
2023-06-19T17:22:49.433Z,23.67
2023-06-19T17:25:17.505Z,23.08
2023-06-19T17:27:45.353Z,23.38
2023-06-19T17:30:13.678Z,23.55
2023-06-19T17:32:41.957Z,24.02
2023-06-19T17:35:13.019Z,23.60
2023-06-19T17:37:41.461Z,22.70
2023-06-19T17:40:11.312Z,23.33
2023-06-19T17:42:39.236Z,23.50
2023-06-19T17:45:07.889Z,22.58
2023-06-19T17:47:35.861Z,22.10
2023-06-19T17:50:03.768Z,22.40
2023-06-19T17:52:33.565Z,21.73
2023-06-19T17:55:01.515Z,21.88
2023-06-19T17:57:29.407Z,20.70
2023-06-19T17:59:57.315Z,20.70
2023-06-19T18:02:25.873Z,20.70
2023-06-19T18:04:53.970Z,19.90
2023-06-19T18:07:21.857Z,20.77
2023-06-19T18:09:51.097Z,19.80
2023-06-19T18:12:18.980Z,18.30
2023-06-19T18:14:46.828Z,17.83
2023-06-19T18:17:16.106Z,18.30
2023-06-19T18:19:44.262Z,19.40
2023-06-19T18:22:12.167Z,18.27
2023-06-19T18:24:40.118Z,18.13
2023-06-19T18:27:09.508Z,18.73
2023-06-19T18:29:37.444Z,17.73
2023-06-19T18:32:05.691Z,17.25
2023-06-19T18:34:33.625Z,16.83
2023-06-19T18:37:01.528Z,17.98
2023-06-19T18:39:29.374Z,17.10
2023-06-19T18:41:57.436Z,16.40
2023-06-19T18:44:26.693Z,16.23
2023-06-19T18:46:54.543Z,16.27
2023-06-19T18:49:22.448Z,15.82
2023-06-19T18:51:50.294Z,15.65
2023-06-19T18:54:18.331Z,15.48
2023-06-19T18:56:46.224Z,14.80
2023-06-19T18:59:14.122Z,15.93
2023-06-19T19:01:43.380Z,14.57
2023-06-19T19:04:11.279Z,14.88
2023-06-19T19:06:39.219Z,14.10
2023-06-19T19:09:08.223Z,14.07
2023-06-19T19:11:36.137Z,14.63
2023-06-19T19:14:04.194Z,13.75
2023-06-19T19:16:32.087Z,14.18
2023-06-19T19:19:01.342Z,13.48
2023-06-19T19:21:29.289Z,13.52
2023-06-19T19:23:57.394Z,14.38
2023-06-19T19:26:25.353Z,13.35
2023-06-19T19:28:53.267Z,13.57
2023-06-19T19:31:21.140Z,12.73
2023-06-19T19:33:49.115Z,12.98
2023-06-19T19:36:18.460Z,12.30
2023-06-19T19:38:46.336Z,12.05
2023-06-19T19:41:14.193Z,12.38
2023-06-19T19:43:42.102Z,12.05
2023-06-19T19:46:10.116Z,11.40
2023-06-19T19:48:38.125Z,11.77
2023-06-19T19:51:05.961Z,11.48
2023-06-19T19:53:35.223Z,12.18
2023-06-19T19:56:03.216Z,11.23
2023-06-19T19:58:31.113Z,11.32
2023-06-19T20:00:59.069Z,11.65
2023-06-19T20:03:27.152Z,12.20
2023-06-19T20:05:56.134Z,11.00
2023-06-19T20:08:23.989Z,10.43
2023-06-19T20:10:53.341Z,10.82
2023-06-19T20:13:21.282Z,10.57
2023-06-19T20:15:49.255Z,9.98
2023-06-19T20:18:17.296Z,9.63
2023-06-19T20:20:45.349Z,10.52
2023-06-19T20:23:13.302Z,10.27
2023-06-19T20:25:41.278Z,10.20
2023-06-19T20:28:10.587Z,10.18
2023-06-19T20:30:39.130Z,10.48
2023-06-19T20:33:07.081Z,9.57
2023-06-19T20:35:35.014Z,10.13
2023-06-19T20:38:02.954Z,10.18
2023-06-19T20:40:30.805Z,10.02
2023-06-19T20:42:58.692Z,9.25
2023-06-19T20:45:27.964Z,9.50
2023-06-19T20:47:55.951Z,9.32
2023-06-19T20:50:24.347Z,9.40
2023-06-19T20:52:52.561Z,8.68
2023-06-19T20:55:20.497Z,9.00
2023-06-19T20:57:48.390Z,9.10
2023-06-19T21:00:16.991Z,9.23
2023-06-19T21:02:46.544Z,9.68
2023-06-19T21:05:16.608Z,8.50
2023-06-19T21:07:44.724Z,8.30
2023-06-19T21:10:12.711Z,8.57
2023-06-19T21:12:41.085Z,8.80
2023-06-19T21:15:09.513Z,8.40
2023-06-19T21:17:37.439Z,8.00
2023-06-19T21:20:10.149Z,8.55
2023-06-19T21:22:38.167Z,8.45
2023-06-19T21:25:06.402Z,8.18
2023-06-19T21:27:34.610Z,8.20
2023-06-19T21:30:02.431Z,8.25
2023-06-19T21:32:30.349Z,7.78
2023-06-19T21:34:58.248Z,7.82
2023-06-19T21:37:27.587Z,8.05
2023-06-19T21:39:55.475Z,7.75
2023-06-19T21:42:23.375Z,8.65
2023-06-19T21:44:51.275Z,7.90
2023-06-19T21:47:19.133Z,7.35
2023-06-19T21:49:47.033Z,7.78
2023-06-19T21:52:14.959Z,7.88
2023-06-19T21:54:44.333Z,7.53
2023-06-19T21:57:12.169Z,7.00
2023-06-19T21:59:40.070Z,7.57
2023-06-19T22:02:09.955Z,7.57
2023-06-19T22:04:37.806Z,7.57
2023-06-19T22:07:05.996Z,7.10
2023-06-19T22:09:33.958Z,7.00
2023-06-19T22:12:03.473Z,7.13
2023-06-19T22:14:31.498Z,7.10
2023-06-19T22:16:59.372Z,7.03
2023-06-19T22:19:27.356Z,7.30
2023-06-19T22:21:55.284Z,6.57
2023-06-19T22:24:23.278Z,6.65
2023-06-19T22:26:51.220Z,6.80
2023-06-19T22:29:20.534Z,7.30
2023-06-19T22:31:48.479Z,7.00
2023-06-19T22:34:16.732Z,6.30
2023-06-19T22:36:44.603Z,6.32
2023-06-19T22:39:12.434Z,7.25
2023-06-19T22:41:40.364Z,7.50
2023-06-19T22:44:08.366Z,6.75
2023-06-19T22:46:37.591Z,6.93
2023-06-19T22:49:05.488Z,6.57
2023-06-19T22:51:33.883Z,6.53
2023-06-19T22:54:01.790Z,6.68
2023-06-19T22:56:29.729Z,6.43
2023-06-19T22:58:57.620Z,6.65
2023-06-19T23:01:31.321Z,6.78
2023-06-19T23:04:00.758Z,7.05
2023-06-19T23:06:28.639Z,6.25
2023-06-19T23:08:56.600Z,6.60
2023-06-19T23:11:24.449Z,6.60
2023-06-19T23:13:52.357Z,6.57
2023-06-19T23:16:20.206Z,6.25
2023-06-19T23:18:48.051Z,5.70
2023-06-19T23:21:17.374Z,5.60
2023-06-19T23:23:48.462Z,6.90
2023-06-19T23:26:24.457Z,6.45
2023-06-19T23:28:52.420Z,5.95
2023-06-19T23:31:22.316Z,5.95
2023-06-19T23:33:51.322Z,6.03
2023-06-19T23:36:20.531Z,6.57
2023-06-19T23:38:51.944Z,5.72
2023-06-19T23:41:20.479Z,6.18
2023-06-19T23:43:48.358Z,6.35
2023-06-19T23:46:16.766Z,6.05
2023-06-19T23:48:44.780Z,6.28
2023-06-19T23:51:12.670Z,5.90
2023-06-19T23:53:41.996Z,6.20
2023-06-19T23:56:09.927Z,6.25
2023-06-19T23:58:37.789Z,5.85
